sensor_id;sensor_type;location;lat;lon;timestamp;temperature;humidity
27848;DHT22;15212;48.830;8.730;2024-03-07T00:01:42;5.60;99.90
27848;DHT22;15212;48.830;8.730;2024-03-07T00:04:11;5.60;99.90
27848;DHT22;15212;48.830;8.730;2024-03-07T00:06:39;5.50;99.90
27848;DHT22;15212;48.830;8.730;2024-03-07T00:09:08;5.50;99.90
27848;DHT22;15212;48.830;8.730;2024-03-07T00:11:37;5.50;99.90
27848;DHT22;15212;48.830;8.730;2024-03-07T00:14:07;5.50;99.90
27848;DHT22;15212;48.830;8.730;2024-03-07T00:16:35;5.40;99.90
27848;DHT22;15212;48.830;8.730;2024-03-07T00:19:04;5.40;99.90
27848;DHT22;15212;48.830;8.730;2024-03-07T00:21:33;5.40;99.90
27848;DHT22;15212;48.830;8.730;2024-03-07T00:24:01;5.40;99.90
27848;DHT22;15212;48.830;8.730;2024-03-07T00:26:31;5.30;99.90
27848;DHT22;15212;48.830;8.730;2024-03-07T00:28:59;5.30;99.90
27848;DHT22;15212;48.830;8.730;2024-03-07T00:31:29;5.30;99.90
27848;DHT22;15212;48.830;8.730;2024-03-07T00:33:57;5.30;99.90
27848;DHT22;15212;48.830;8.730;2024-03-07T00:36:26;5.30;99.90
27848;DHT22;15212;48.830;8.730;2024-03-07T00:38:54;5.30;99.90
27848;DHT22;15212;48.830;8.730;2024-03-07T00:41:23;5.20;99.90
27848;DHT22;15212;48.830;8.730;2024-03-07T00:43:51;5.20;99.90
27848;DHT22;15212;48.830;8.730;2024-03-07T00:46:19;5.10;99.90
27848;DHT22;15212;48.830;8.730;2024-03-07T00:48:48;5.10;99.90
27848;DHT22;15212;48.830;8.730;2024-03-07T00:51:16;5.00;99.90
27848;DHT22;15212;48.830;8.730;2024-03-07T00:53:45;5.00;99.90
27848;DHT22;15212;48.830;8.730;2024-03-07T00:56:13;5.10;99.90
27848;DHT22;15212;48.830;8.730;2024-03-07T00:58:42;5.00;99.90
27848;DHT22;15212;48.830;8.730;2024-03-07T01:01:10;4.90;99.90
27848;DHT22;15212;48.830;8.730;2024-03-07T01:03:39;4.90;99.90
27848;DHT22;15212;48.830;8.730;2024-03-07T01:06:07;4.90;99.90
27848;DHT22;15212;48.830;8.730;2024-03-07T01:08:38;4.80;99.90
27848;DHT22;15212;48.830;8.730;2024-03-07T01:11:07;4.80;99.90
27848;DHT22;15212;48.830;8.730;2024-03-07T01:13:39;4.80;99.90
27848;DHT22;15212;48.830;8.730;2024-03-07T01:16:07;4.70;99.90
27848;DHT22;15212;48.830;8.730;2024-03-07T01:18:37;4.70;99.90
27848;DHT22;15212;48.830;8.730;2024-03-07T01:21:06;4.70;99.90
27848;DHT22;15212;48.830;8.730;2024-03-07T01:23:35;4.60;99.90
27848;DHT22;15212;48.830;8.730;2024-03-07T01:26:03;4.60;99.90
27848;DHT22;15212;48.830;8.730;2024-03-07T01:28:31;4.50;99.90
27848;DHT22;15212;48.830;8.730;2024-03-07T01:31:00;4.40;99.90
27848;DHT22;15212;48.830;8.730;2024-03-07T01:33:29;4.40;99.90
27848;DHT22;15212;48.830;8.730;2024-03-07T01:35:57;4.30;99.90
27848;DHT22;15212;48.830;8.730;2024-03-07T01:38:26;4.30;99.90
27848;DHT22;15212;48.830;8.730;2024-03-07T01:40:54;4.30;99.90
27848;DHT22;15212;48.830;8.730;2024-03-07T01:43:22;4.30;99.90
27848;DHT22;15212;48.830;8.730;2024-03-07T01:45:53;4.30;99.90
27848;DHT22;15212;48.830;8.730;2024-03-07T01:48:27;4.30;99.90
27848;DHT22;15212;48.830;8.730;2024-03-07T01:50:57;4.30;99.90
27848;DHT22;15212;48.830;8.730;2024-03-07T01:53:27;4.20;99.90
27848;DHT22;15212;48.830;8.730;2024-03-07T01:55:59;4.20;99.90
27848;DHT22;15212;48.830;8.730;2024-03-07T01:58:29;4.20;99.90
27848;DHT22;15212;48.830;8.730;2024-03-07T02:00:59;4.30;99.90
27848;DHT22;15212;48.830;8.730;2024-03-07T02:03:28;4.20;99.90
27848;DHT22;15212;48.830;8.730;2024-03-07T02:05:57;4.20;99.90
27848;DHT22;15212;48.830;8.730;2024-03-07T02:08:25;4.20;99.90
27848;DHT22;15212;48.830;8.730;2024-03-07T02:10:53;4.10;99.90
27848;DHT22;15212;48.830;8.730;2024-03-07T02:13:22;4.10;99.90
27848;DHT22;15212;48.830;8.730;2024-03-07T02:15:50;4.00;99.90
27848;DHT22;15212;48.830;8.730;2024-03-07T02:18:20;4.00;99.90
27848;DHT22;15212;48.830;8.730;2024-03-07T02:20:48;4.00;99.90
27848;DHT22;15212;48.830;8.730;2024-03-07T02:23:17;3.90;99.90
27848;DHT22;15212;48.830;8.730;2024-03-07T02:25:45;3.90;99.90
27848;DHT22;15212;48.830;8.730;2024-03-07T02:28:14;3.90;99.90
27848;DHT22;15212;48.830;8.730;2024-03-07T02:30:42;3.80;99.90
27848;DHT22;15212;48.830;8.730;2024-03-07T02:33:12;3.80;99.90
27848;DHT22;15212;48.830;8.730;2024-03-07T02:35:41;3.70;99.90
27848;DHT22;15212;48.830;8.730;2024-03-07T02:38:09;3.60;99.90
27848;DHT22;15212;48.830;8.730;2024-03-07T02:40:38;3.60;99.90
27848;DHT22;15212;48.830;8.730;2024-03-07T02:43:06;3.50;99.90
27848;DHT22;15212;48.830;8.730;2024-03-07T02:45:35;3.50;99.90
27848;DHT22;15212;48.830;8.730;2024-03-07T02:48:03;3.50;99.90
27848;DHT22;15212;48.830;8.730;2024-03-07T02:50:34;3.50;99.90
27848;DHT22;15212;48.830;8.730;2024-03-07T02:53:06;3.40;99.90
27848;DHT22;15212;48.830;8.730;2024-03-07T02:55:34;3.40;99.90
27848;DHT22;15212;48.830;8.730;2024-03-07T02:58:03;3.40;99.90
27848;DHT22;15212;48.830;8.730;2024-03-07T03:00:32;3.40;99.90
27848;DHT22;15212;48.830;8.730;2024-03-07T03:03:01;3.40;99.90
27848;DHT22;15212;48.830;8.730;2024-03-07T03:05:29;3.40;99.90
27848;DHT22;15212;48.830;8.730;2024-03-07T03:07:58;3.40;99.90
27848;DHT22;15212;48.830;8.730;2024-03-07T03:10:26;3.40;99.90
27848;DHT22;15212;48.830;8.730;2024-03-07T03:12:56;3.50;99.90
27848;DHT22;15212;48.830;8.730;2024-03-07T03:15:25;3.40;99.90
27848;DHT22;15212;48.830;8.730;2024-03-07T03:17:54;3.40;99.90
27848;DHT22;15212;48.830;8.730;2024-03-07T03:20:24;3.40;99.90
27848;DHT22;15212;48.830;8.730;2024-03-07T03:22:55;3.40;99.90
27848;DHT22;15212;48.830;8.730;2024-03-07T03:25:23;3.40;99.90
27848;DHT22;15212;48.830;8.730;2024-03-07T03:27:52;3.40;99.90
27848;DHT22;15212;48.830;8.730;2024-03-07T03:30:21;3.30;99.90
27848;DHT22;15212;48.830;8.730;2024-03-07T03:32:50;3.30;99.90
27848;DHT22;15212;48.830;8.730;2024-03-07T03:35:19;3.30;99.90
27848;DHT22;15212;48.830;8.730;2024-03-07T03:37:47;3.30;99.90
27848;DHT22;15212;48.830;8.730;2024-03-07T03:40:16;3.20;99.90
27848;DHT22;15212;48.830;8.730;2024-03-07T03:42:45;3.20;99.90
27848;DHT22;15212;48.830;8.730;2024-03-07T03:45:14;3.20;99.90
27848;DHT22;15212;48.830;8.730;2024-03-07T03:47:43;3.20;99.90
27848;DHT22;15212;48.830;8.730;2024-03-07T03:50:13;3.20;99.90
27848;DHT22;15212;48.830;8.730;2024-03-07T03:52:42;3.20;99.90
27848;DHT22;15212;48.830;8.730;2024-03-07T03:55:11;3.10;99.90
27848;DHT22;15212;48.830;8.730;2024-03-07T03:57:41;3.10;99.90
27848;DHT22;15212;48.830;8.730;2024-03-07T04:00:11;3.10;99.90
27848;DHT22;15212;48.830;8.730;2024-03-07T04:02:40;3.10;99.90
27848;DHT22;15212;48.830;8.730;2024-03-07T04:05:11;3.00;99.90
27848;DHT22;15212;48.830;8.730;2024-03-07T04:07:41;3.00;99.90
27848;DHT22;15212;48.830;8.730;2024-03-07T04:10:10;2.90;99.90
27848;DHT22;15212;48.830;8.730;2024-03-07T04:12:40;3.00;99.90
27848;DHT22;15212;48.830;8.730;2024-03-07T04:15:11;2.90;99.90
27848;DHT22;15212;48.830;8.730;2024-03-07T04:17:42;2.90;99.90
27848;DHT22;15212;48.830;8.730;2024-03-07T04:20:13;2.80;99.90
27848;DHT22;15212;48.830;8.730;2024-03-07T04:22:43;2.80;99.90
27848;DHT22;15212;48.830;8.730;2024-03-07T04:25:12;2.70;99.90
27848;DHT22;15212;48.830;8.730;2024-03-07T04:27:41;2.70;99.90
27848;DHT22;15212;48.830;8.730;2024-03-07T04:30:09;2.70;99.90
27848;DHT22;15212;48.830;8.730;2024-03-07T04:32:39;2.60;99.90
27848;DHT22;15212;48.830;8.730;2024-03-07T04:35:09;2.60;99.90
27848;DHT22;15212;48.830;8.730;2024-03-07T04:37:37;2.50;99.90
27848;DHT22;15212;48.830;8.730;2024-03-07T04:40:08;2.50;99.90
27848;DHT22;15212;48.830;8.730;2024-03-07T04:42:44;2.40;99.90
27848;DHT22;15212;48.830;8.730;2024-03-07T04:45:16;2.40;99.90
27848;DHT22;15212;48.830;8.730;2024-03-07T04:47:45;2.30;99.90
27848;DHT22;15212;48.830;8.730;2024-03-07T04:50:14;2.30;99.90
27848;DHT22;15212;48.830;8.730;2024-03-07T04:52:46;2.30;99.90
27848;DHT22;15212;48.830;8.730;2024-03-07T04:55:15;2.20;99.90
27848;DHT22;15212;48.830;8.730;2024-03-07T04:57:44;2.20;99.90
27848;DHT22;15212;48.830;8.730;2024-03-07T05:00:14;2.20;99.90
27848;DHT22;15212;48.830;8.730;2024-03-07T05:02:47;2.10;99.90
27848;DHT22;15212;48.830;8.730;2024-03-07T05:05:16;2.00;99.90
27848;DHT22;15212;48.830;8.730;2024-03-07T05:07:46;2.00;99.90
27848;DHT22;15212;48.830;8.730;2024-03-07T05:10:17;2.00;99.90
27848;DHT22;15212;48.830;8.730;2024-03-07T05:12:46;1.90;99.90
27848;DHT22;15212;48.830;8.730;2024-03-07T05:15:14;2.00;99.90
27848;DHT22;15212;48.830;8.730;2024-03-07T05:17:43;1.90;99.90
27848;DHT22;15212;48.830;8.730;2024-03-07T05:20:12;1.90;99.90
27848;DHT22;15212;48.830;8.730;2024-03-07T05:22:40;1.90;99.90
27848;DHT22;15212;48.830;8.730;2024-03-07T05:25:13;1.90;99.90
27848;DHT22;15212;48.830;8.730;2024-03-07T05:27:43;1.80;99.90
27848;DHT22;15212;48.830;8.730;2024-03-07T05:30:11;1.80;99.90
27848;DHT22;15212;48.830;8.730;2024-03-07T05:32:41;1.80;99.90
27848;DHT22;15212;48.830;8.730;2024-03-07T05:35:10;1.70;99.90
27848;DHT22;15212;48.830;8.730;2024-03-07T05:37:38;1.70;99.90
27848;DHT22;15212;48.830;8.730;2024-03-07T05:40:11;1.70;99.90
27848;DHT22;15212;48.830;8.730;2024-03-07T05:42:40;1.70;99.90
27848;DHT22;15212;48.830;8.730;2024-03-07T05:45:09;1.60;99.90
27848;DHT22;15212;48.830;8.730;2024-03-07T05:47:37;1.60;99.90
27848;DHT22;15212;48.830;8.730;2024-03-07T05:50:06;1.60;99.90
27848;DHT22;15212;48.830;8.730;2024-03-07T05:52:35;1.60;99.90
27848;DHT22;15212;48.830;8.730;2024-03-07T05:55:04;1.60;99.90
27848;DHT22;15212;48.830;8.730;2024-03-07T05:57:37;1.60;99.90
27848;DHT22;15212;48.830;8.730;2024-03-07T06:00:06;1.60;99.90
27848;DHT22;15212;48.830;8.730;2024-03-07T06:02:36;1.60;99.90
27848;DHT22;15212;48.830;8.730;2024-03-07T06:05:05;1.60;99.90
27848;DHT22;15212;48.830;8.730;2024-03-07T06:07:35;1.60;99.90
27848;DHT22;15212;48.830;8.730;2024-03-07T06:10:03;1.50;99.90
27848;DHT22;15212;48.830;8.730;2024-03-07T06:12:34;1.50;99.90
27848;DHT22;15212;48.830;8.730;2024-03-07T06:15:02;1.50;99.90
27848;DHT22;15212;48.830;8.730;2024-03-07T06:17:32;1.50;99.90
27848;DHT22;15212;48.830;8.730;2024-03-07T06:20:00;1.50;99.90
27848;DHT22;15212;48.830;8.730;2024-03-07T06:22:30;1.50;99.90
27848;DHT22;15212;48.830;8.730;2024-03-07T06:24:58;1.50;99.90
27848;DHT22;15212;48.830;8.730;2024-03-07T06:27:28;1.50;99.90
27848;DHT22;15212;48.830;8.730;2024-03-07T06:29:58;1.60;99.90
27848;DHT22;15212;48.830;8.730;2024-03-07T06:32:27;1.70;99.90
27848;DHT22;15212;48.830;8.730;2024-03-07T06:34:55;2.10;99.90
27848;DHT22;15212;48.830;8.730;2024-03-07T06:37:23;2.40;99.90
27848;DHT22;15212;48.830;8.730;2024-03-07T06:39:53;2.60;99.90
27848;DHT22;15212;48.830;8.730;2024-03-07T06:42:21;2.80;99.90
27848;DHT22;15212;48.830;8.730;2024-03-07T06:44:49;2.80;99.90
27848;DHT22;15212;48.830;8.730;2024-03-07T06:47:18;2.70;99.90
27848;DHT22;15212;48.830;8.730;2024-03-07T06:49:46;2.60;99.90
27848;DHT22;15212;48.830;8.730;2024-03-07T06:52:15;2.50;99.90
27848;DHT22;15212;48.830;8.730;2024-03-07T06:54:44;2.40;99.90
27848;DHT22;15212;48.830;8.730;2024-03-07T06:57:13;2.30;99.90
27848;DHT22;15212;48.830;8.730;2024-03-07T06:59:43;2.20;99.90
27848;DHT22;15212;48.830;8.730;2024-03-07T07:02:11;2.20;99.90
27848;DHT22;15212;48.830;8.730;2024-03-07T07:04:40;2.20;99.90
27848;DHT22;15212;48.830;8.730;2024-03-07T07:07:09;2.30;99.90
27848;DHT22;15212;48.830;8.730;2024-03-07T07:09:39;2.40;99.90
27848;DHT22;15212;48.830;8.730;2024-03-07T07:12:08;2.40;99.90
27848;DHT22;15212;48.830;8.730;2024-03-07T07:14:36;2.50;99.90
27848;DHT22;15212;48.830;8.730;2024-03-07T07:17:05;2.60;99.90
27848;DHT22;15212;48.830;8.730;2024-03-07T07:19:34;2.70;99.90
27848;DHT22;15212;48.830;8.730;2024-03-07T07:22:02;2.70;99.90
27848;DHT22;15212;48.830;8.730;2024-03-07T07:24:32;2.80;99.90
27848;DHT22;15212;48.830;8.730;2024-03-07T07:27:01;2.90;99.90
27848;DHT22;15212;48.830;8.730;2024-03-07T07:29:29;3.00;99.90
27848;DHT22;15212;48.830;8.730;2024-03-07T07:31:58;3.00;99.90
27848;DHT22;15212;48.830;8.730;2024-03-07T07:34:26;3.00;99.90
27848;DHT22;15212;48.830;8.730;2024-03-07T07:36:54;3.00;99.90
27848;DHT22;15212;48.830;8.730;2024-03-07T07:39:23;3.00;99.90
27848;DHT22;15212;48.830;8.730;2024-03-07T07:41:51;2.90;99.90
27848;DHT22;15212;48.830;8.730;2024-03-07T07:44:20;3.00;99.90
27848;DHT22;15212;48.830;8.730;2024-03-07T07:46:49;3.10;99.90
27848;DHT22;15212;48.830;8.730;2024-03-07T07:49:17;3.00;99.90
27848;DHT22;15212;48.830;8.730;2024-03-07T07:51:46;3.10;99.90
27848;DHT22;15212;48.830;8.730;2024-03-07T07:54:16;3.20;99.90
27848;DHT22;15212;48.830;8.730;2024-03-07T07:56:44;3.10;99.90
27848;DHT22;15212;48.830;8.730;2024-03-07T07:59:14;3.20;99.90
27848;DHT22;15212;48.830;8.730;2024-03-07T08:01:42;3.20;99.90
27848;DHT22;15212;48.830;8.730;2024-03-07T08:04:11;3.20;99.90
27848;DHT22;15212;48.830;8.730;2024-03-07T08:06:39;3.20;99.90
27848;DHT22;15212;48.830;8.730;2024-03-07T08:09:07;3.20;99.90
27848;DHT22;15212;48.830;8.730;2024-03-07T08:11:36;3.20;99.90
27848;DHT22;15212;48.830;8.730;2024-03-07T08:14:05;3.30;99.90
27848;DHT22;15212;48.830;8.730;2024-03-07T08:16:33;3.30;99.90
27848;DHT22;15212;48.830;8.730;2024-03-07T08:19:02;3.30;99.90
27848;DHT22;15212;48.830;8.730;2024-03-07T08:21:30;3.40;99.90
27848;DHT22;15212;48.830;8.730;2024-03-07T08:23:58;3.50;99.90
27848;DHT22;15212;48.830;8.730;2024-03-07T08:26:29;3.50;99.90
27848;DHT22;15212;48.830;8.730;2024-03-07T08:28:58;3.50;99.90
27848;DHT22;15212;48.830;8.730;2024-03-07T08:31:27;3.50;99.90
27848;DHT22;15212;48.830;8.730;2024-03-07T08:33:55;3.60;99.90
27848;DHT22;15212;48.830;8.730;2024-03-07T08:36:23;3.70;99.90
27848;DHT22;15212;48.830;8.730;2024-03-07T08:38:52;3.80;99.90
27848;DHT22;15212;48.830;8.730;2024-03-07T08:41:20;3.90;99.90
27848;DHT22;15212;48.830;8.730;2024-03-07T08:43:49;3.90;99.90
27848;DHT22;15212;48.830;8.730;2024-03-07T08:46:17;3.80;99.90
27848;DHT22;15212;48.830;8.730;2024-03-07T08:48:46;3.80;99.90
27848;DHT22;15212;48.830;8.730;2024-03-07T08:51:16;3.70;99.90
27848;DHT22;15212;48.830;8.730;2024-03-07T08:53:44;3.70;99.90
27848;DHT22;15212;48.830;8.730;2024-03-07T08:56:12;3.70;99.90
27848;DHT22;15212;48.830;8.730;2024-03-07T08:58:41;3.60;99.90
27848;DHT22;15212;48.830;8.730;2024-03-07T09:01:10;3.60;99.90
27848;DHT22;15212;48.830;8.730;2024-03-07T09:03:38;3.50;99.90
27848;DHT22;15212;48.830;8.730;2024-03-07T09:06:06;3.50;99.90
27848;DHT22;15212;48.830;8.730;2024-03-07T09:08:35;3.50;99.90
27848;DHT22;15212;48.830;8.730;2024-03-07T09:11:03;3.50;99.90
27848;DHT22;15212;48.830;8.730;2024-03-07T09:13:32;3.50;99.90
27848;DHT22;15212;48.830;8.730;2024-03-07T09:16:01;3.50;99.90
27848;DHT22;15212;48.830;8.730;2024-03-07T09:18:31;3.50;99.90
27848;DHT22;15212;48.830;8.730;2024-03-07T09:21:00;3.50;99.90
27848;DHT22;15212;48.830;8.730;2024-03-07T09:23:28;3.50;99.90
27848;DHT22;15212;48.830;8.730;2024-03-07T09:25:57;3.50;99.90
27848;DHT22;15212;48.830;8.730;2024-03-07T09:28:25;3.50;99.90
27848;DHT22;15212;48.830;8.730;2024-03-07T09:30:53;3.50;99.90
27848;DHT22;15212;48.830;8.730;2024-03-07T09:33:24;3.40;99.90
27848;DHT22;15212;48.830;8.730;2024-03-07T09:35:52;3.40;99.90
27848;DHT22;15212;48.830;8.730;2024-03-07T09:38:20;3.30;99.90
27848;DHT22;15212;48.830;8.730;2024-03-07T09:40:49;3.30;99.90
27848;DHT22;15212;48.830;8.730;2024-03-07T09:43:17;3.30;99.90
27848;DHT22;15212;48.830;8.730;2024-03-07T09:45:46;3.30;99.90
27848;DHT22;15212;48.830;8.730;2024-03-07T09:48:15;3.30;99.90
27848;DHT22;15212;48.830;8.730;2024-03-07T09:50:45;3.30;99.90
27848;DHT22;15212;48.830;8.730;2024-03-07T09:53:16;3.30;99.90
27848;DHT22;15212;48.830;8.730;2024-03-07T09:55:46;3.30;99.90
27848;DHT22;15212;48.830;8.730;2024-03-07T09:58:17;3.40;99.90
27848;DHT22;15212;48.830;8.730;2024-03-07T10:00:49;3.50;99.90
27848;DHT22;15212;48.830;8.730;2024-03-07T10:03:21;3.50;99.90
27848;DHT22;15212;48.830;8.730;2024-03-07T10:05:51;3.60;99.90
27848;DHT22;15212;48.830;8.730;2024-03-07T10:08:19;3.60;99.90
27848;DHT22;15212;48.830;8.730;2024-03-07T10:10:50;3.60;99.90
27848;DHT22;15212;48.830;8.730;2024-03-07T10:13:19;3.70;99.90
27848;DHT22;15212;48.830;8.730;2024-03-07T10:15:49;3.60;99.90
27848;DHT22;15212;48.830;8.730;2024-03-07T10:18:19;3.50;99.90
27848;DHT22;15212;48.830;8.730;2024-03-07T10:20:49;3.50;99.90
27848;DHT22;15212;48.830;8.730;2024-03-07T10:23:20;3.50;99.90
27848;DHT22;15212;48.830;8.730;2024-03-07T10:25:51;3.60;99.90
27848;DHT22;15212;48.830;8.730;2024-03-07T10:28:21;3.70;99.90
27848;DHT22;15212;48.830;8.730;2024-03-07T10:30:50;3.70;99.90
27848;DHT22;15212;48.830;8.730;2024-03-07T10:33:18;3.80;99.90
27848;DHT22;15212;48.830;8.730;2024-03-07T10:35:47;3.90;99.90
27848;DHT22;15212;48.830;8.730;2024-03-07T10:38:16;3.90;99.90
27848;DHT22;15212;48.830;8.730;2024-03-07T10:40:55;3.90;99.90
27848;DHT22;15212;48.830;8.730;2024-03-07T10:43:21;4.00;99.90
27848;DHT22;15212;48.830;8.730;2024-03-07T10:45:52;4.00;99.90
27848;DHT22;15212;48.830;8.730;2024-03-07T10:48:25;3.90;99.90
27848;DHT22;15212;48.830;8.730;2024-03-07T10:59:45;4.00;99.90
27848;DHT22;15212;48.830;8.730;2024-03-07T11:05:04;4.10;99.90
27848;DHT22;15212;48.830;8.730;2024-03-07T11:07:35;4.10;99.90
27848;DHT22;15212;48.830;8.730;2024-03-07T11:10:05;4.20;99.90
27848;DHT22;15212;48.830;8.730;2024-03-07T11:12:36;4.20;99.90
27848;DHT22;15212;48.830;8.730;2024-03-07T11:15:08;4.30;99.90
27848;DHT22;15212;48.830;8.730;2024-03-07T11:17:50;4.30;99.90
27848;DHT22;15212;48.830;8.730;2024-03-07T11:20:22;4.40;99.90
27848;DHT22;15212;48.830;8.730;2024-03-07T11:22:52;4.40;99.90
27848;DHT22;15212;48.830;8.730;2024-03-07T11:25:22;4.50;99.90
27848;DHT22;15212;48.830;8.730;2024-03-07T11:27:57;4.60;99.90
27848;DHT22;15212;48.830;8.730;2024-03-07T11:30:26;4.70;99.90
27848;DHT22;15212;48.830;8.730;2024-03-07T11:32:55;4.90;99.90
27848;DHT22;15212;48.830;8.730;2024-03-07T11:35:33;5.10;99.90
27848;DHT22;15212;48.830;8.730;2024-03-07T11:38:02;5.30;99.90
27848;DHT22;15212;48.830;8.730;2024-03-07T11:43:12;5.70;99.90
27848;DHT22;15212;48.830;8.730;2024-03-07T11:45:41;5.70;99.90
27848;DHT22;15212;48.830;8.730;2024-03-07T11:48:12;5.70;99.90
27848;DHT22;15212;48.830;8.730;2024-03-07T11:50:41;5.70;99.90
27848;DHT22;15212;48.830;8.730;2024-03-07T11:53:10;5.70;99.90
27848;DHT22;15212;48.830;8.730;2024-03-07T11:55:39;5.60;99.90
27848;DHT22;15212;48.830;8.730;2024-03-07T11:58:18;5.60;99.90
27848;DHT22;15212;48.830;8.730;2024-03-07T12:00:53;5.60;99.90
27848;DHT22;15212;48.830;8.730;2024-03-07T12:03:23;5.50;99.90
27848;DHT22;15212;48.830;8.730;2024-03-07T12:05:53;5.50;99.90
27848;DHT22;15212;48.830;8.730;2024-03-07T12:08:22;5.50;99.90
27848;DHT22;15212;48.830;8.730;2024-03-07T12:10:53;5.50;99.90
27848;DHT22;15212;48.830;8.730;2024-03-07T12:13:23;5.50;99.90
27848;DHT22;15212;48.830;8.730;2024-03-07T12:15:51;5.60;99.90
27848;DHT22;15212;48.830;8.730;2024-03-07T12:18:22;5.60;99.90
27848;DHT22;15212;48.830;8.730;2024-03-07T12:20:51;5.50;99.90
27848;DHT22;15212;48.830;8.730;2024-03-07T12:23:24;5.60;99.90
27848;DHT22;15212;48.830;8.730;2024-03-07T12:26:03;5.50;99.90
27848;DHT22;15212;48.830;8.730;2024-03-07T12:28:32;5.50;99.90
27848;DHT22;15212;48.830;8.730;2024-03-07T12:31:00;5.50;99.90
27848;DHT22;15212;48.830;8.730;2024-03-07T12:33:29;5.50;99.90
27848;DHT22;15212;48.830;8.730;2024-03-07T12:36:02;5.50;99.90
27848;DHT22;15212;48.830;8.730;2024-03-07T12:38:34;5.50;99.90
27848;DHT22;15212;48.830;8.730;2024-03-07T12:41:08;5.50;99.90
27848;DHT22;15212;48.830;8.730;2024-03-07T12:43:44;5.60;99.90
27848;DHT22;15212;48.830;8.730;2024-03-07T12:46:13;5.70;99.90
27848;DHT22;15212;48.830;8.730;2024-03-07T12:48:42;5.70;99.90
27848;DHT22;15212;48.830;8.730;2024-03-07T12:51:11;5.80;99.90
27848;DHT22;15212;48.830;8.730;2024-03-07T12:53:41;5.70;99.90
27848;DHT22;15212;48.830;8.730;2024-03-07T12:56:10;5.70;99.90
27848;DHT22;15212;48.830;8.730;2024-03-07T12:58:40;5.70;99.90
27848;DHT22;15212;48.830;8.730;2024-03-07T13:01:09;5.70;99.90
27848;DHT22;15212;48.830;8.730;2024-03-07T13:03:38;5.60;99.90
27848;DHT22;15212;48.830;8.730;2024-03-07T13:06:08;5.60;99.90
27848;DHT22;15212;48.830;8.730;2024-03-07T13:08:37;5.60;99.90
27848;DHT22;15212;48.830;8.730;2024-03-07T13:11:07;5.50;99.90
27848;DHT22;15212;48.830;8.730;2024-03-07T13:13:36;5.50;99.90
27848;DHT22;15212;48.830;8.730;2024-03-07T13:16:04;5.50;99.90
27848;DHT22;15212;48.830;8.730;2024-03-07T13:18:33;5.50;99.90
27848;DHT22;15212;48.830;8.730;2024-03-07T13:21:02;5.50;99.90
27848;DHT22;15212;48.830;8.730;2024-03-07T13:23:33;5.50;99.90
27848;DHT22;15212;48.830;8.730;2024-03-07T13:26:04;5.50;99.90
27848;DHT22;15212;48.830;8.730;2024-03-07T13:28:34;5.50;99.90
27848;DHT22;15212;48.830;8.730;2024-03-07T13:31:02;5.50;99.90
27848;DHT22;15212;48.830;8.730;2024-03-07T13:33:30;5.60;99.90
27848;DHT22;15212;48.830;8.730;2024-03-07T13:35:59;5.60;99.90
27848;DHT22;15212;48.830;8.730;2024-03-07T13:38:28;5.60;99.90
27848;DHT22;15212;48.830;8.730;2024-03-07T13:40:56;5.60;99.90
27848;DHT22;15212;48.830;8.730;2024-03-07T13:43:25;5.60;99.90
27848;DHT22;15212;48.830;8.730;2024-03-07T13:45:53;5.70;99.90
27848;DHT22;15212;48.830;8.730;2024-03-07T13:48:22;5.60;99.90
27848;DHT22;15212;48.830;8.730;2024-03-07T13:50:51;5.60;99.90
27848;DHT22;15212;48.830;8.730;2024-03-07T13:53:22;5.50;99.90
27848;DHT22;15212;48.830;8.730;2024-03-07T14:02:26;5.50;99.90
27848;DHT22;15212;48.830;8.730;2024-03-07T14:05:33;5.50;99.90
27848;DHT22;15212;48.830;8.730;2024-03-07T14:17:59;5.60;99.90
27848;DHT22;15212;48.830;8.730;2024-03-07T14:27:33;5.60;99.90
27848;DHT22;15212;48.830;8.730;2024-03-07T14:30:34;5.70;99.90
27848;DHT22;15212;48.830;8.730;2024-03-07T14:33:05;5.80;99.90
27848;DHT22;15212;48.830;8.730;2024-03-07T14:38:50;6.00;99.90
27848;DHT22;15212;48.830;8.730;2024-03-07T14:42:13;6.00;99.90
27848;DHT22;15212;48.830;8.730;2024-03-07T14:44:07;6.00;99.90
27848;DHT22;15212;48.830;8.730;2024-03-07T14:46:37;6.00;99.90
27848;DHT22;15212;48.830;8.730;2024-03-07T14:49:05;6.10;99.90
27848;DHT22;15212;48.830;8.730;2024-03-07T14:51:35;6.10;99.90
27848;DHT22;15212;48.830;8.730;2024-03-07T14:54:04;6.10;99.90
27848;DHT22;15212;48.830;8.730;2024-03-07T14:56:34;6.00;99.90
27848;DHT22;15212;48.830;8.730;2024-03-07T14:59:03;6.00;99.90
27848;DHT22;15212;48.830;8.730;2024-03-07T15:01:32;6.10;99.90
27848;DHT22;15212;48.830;8.730;2024-03-07T15:04:02;6.10;99.90
27848;DHT22;15212;48.830;8.730;2024-03-07T15:06:32;6.10;99.90
27848;DHT22;15212;48.830;8.730;2024-03-07T15:09:01;6.10;99.90
27848;DHT22;15212;48.830;8.730;2024-03-07T15:11:35;6.10;99.90
27848;DHT22;15212;48.830;8.730;2024-03-07T15:14:07;6.10;99.90
27848;DHT22;15212;48.830;8.730;2024-03-07T15:16:37;6.10;99.90
27848;DHT22;15212;48.830;8.730;2024-03-07T15:19:07;6.10;99.90
27848;DHT22;15212;48.830;8.730;2024-03-07T15:21:36;6.10;99.90
27848;DHT22;15212;48.830;8.730;2024-03-07T15:24:06;6.10;99.90
27848;DHT22;15212;48.830;8.730;2024-03-07T15:26:35;6.10;99.90
27848;DHT22;15212;48.830;8.730;2024-03-07T15:29:05;6.00;99.90
27848;DHT22;15212;48.830;8.730;2024-03-07T15:31:33;6.10;99.90
27848;DHT22;15212;48.830;8.730;2024-03-07T15:34:02;6.10;99.90
27848;DHT22;15212;48.830;8.730;2024-03-07T15:36:30;6.10;99.90
27848;DHT22;15212;48.830;8.730;2024-03-07T15:38:59;6.20;99.90
27848;DHT22;15212;48.830;8.730;2024-03-07T15:41:29;6.20;99.90
27848;DHT22;15212;48.830;8.730;2024-03-07T15:43:59;6.10;99.90
27848;DHT22;15212;48.830;8.730;2024-03-07T15:46:27;6.10;99.90
27848;DHT22;15212;48.830;8.730;2024-03-07T15:48:55;6.10;99.90
27848;DHT22;15212;48.830;8.730;2024-03-07T15:51:24;6.00;99.90
27848;DHT22;15212;48.830;8.730;2024-03-07T15:53:52;6.00;99.90
27848;DHT22;15212;48.830;8.730;2024-03-07T15:56:21;5.90;99.90
27848;DHT22;15212;48.830;8.730;2024-03-07T15:58:51;5.90;99.90
27848;DHT22;15212;48.830;8.730;2024-03-07T16:01:19;5.90;99.90
27848;DHT22;15212;48.830;8.730;2024-03-07T16:03:48;5.90;99.90
27848;DHT22;15212;48.830;8.730;2024-03-07T16:06:16;5.90;99.90
27848;DHT22;15212;48.830;8.730;2024-03-07T16:08:45;5.80;99.90
27848;DHT22;15212;48.830;8.730;2024-03-07T16:11:18;5.80;99.90
27848;DHT22;15212;48.830;8.730;2024-03-07T16:13:48;5.80;99.90
27848;DHT22;15212;48.830;8.730;2024-03-07T16:16:17;5.80;99.90
27848;DHT22;15212;48.830;8.730;2024-03-07T16:18:46;5.80;99.90
27848;DHT22;15212;48.830;8.730;2024-03-07T16:21:14;5.80;99.90
27848;DHT22;15212;48.830;8.730;2024-03-07T16:23:43;5.70;99.90
27848;DHT22;15212;48.830;8.730;2024-03-07T16:26:11;5.70;99.90
27848;DHT22;15212;48.830;8.730;2024-03-07T16:28:41;5.70;99.90
27848;DHT22;15212;48.830;8.730;2024-03-07T16:31:10;5.70;99.90
27848;DHT22;15212;48.830;8.730;2024-03-07T16:33:39;5.60;99.90
27848;DHT22;15212;48.830;8.730;2024-03-07T16:36:07;5.60;99.90
27848;DHT22;15212;48.830;8.730;2024-03-07T16:38:36;5.60;99.90
27848;DHT22;15212;48.830;8.730;2024-03-07T16:41:04;5.60;99.90